Sapiranga, Brazil
Current Conditions -  °F | °C
As of 9:00 PM on Saturday 25 Oct 2014 (Local Time) from SBCO Reporting Station
Broken Clouds Broken Clouds  
Wind Chill: 72°   Ceiling: 1100
Heat Index: 72°   Visibility: 6mi
Dew Point: 68°   Wind: 16mph
Humidity: 88%   Direction: 140°SE
Pressure: 29.91"   Gusts: NA
Location:  29.64°S, 51.01°W
Report Text: SBCO 252300Z 14014KT 9999 BKN011 22/20 Q1013
Loading
Personal Weather Stations






























Interactive Weather Map
Tropical Storm Tracking
New forecast layout! Learn more

10-Day Weather Forecast

Advertisements
Track Severe Weather on mobile